createdAt,value
2022-10-12T00:01:05.304Z,7.40
2022-10-12T00:03:32.110Z,7.50
2022-10-12T00:06:04.363Z,7.40
2022-10-12T00:08:31.886Z,7.50
2022-10-12T00:10:59.020Z,7.40
2022-10-12T00:13:25.972Z,7.50
2022-10-12T00:15:52.722Z,7.40
2022-10-12T00:18:19.578Z,7.40
2022-10-12T00:20:46.598Z,7.40
2022-10-12T00:23:13.355Z,7.40
2022-10-12T00:25:41.484Z,7.40
2022-10-12T00:28:08.795Z,7.40
2022-10-12T00:33:28.462Z,7.30
2022-10-12T00:38:42.315Z,7.40
2022-10-12T00:41:09.062Z,7.40
2022-10-12T00:43:39.077Z,7.40
2022-10-12T00:49:22.508Z,7.40
2022-10-12T00:51:53.678Z,7.40
2022-10-12T00:54:25.382Z,7.40
2022-10-12T00:56:54.406Z,7.50
2022-10-12T00:59:30.929Z,7.60
2022-10-12T01:01:57.760Z,7.50
2022-10-12T01:07:11.999Z,7.60
2022-10-12T01:12:26.481Z,7.70
2022-10-12T01:17:52.073Z,7.70
2022-10-12T01:20:43.471Z,7.70
2022-10-12T01:26:41.744Z,7.80
2022-10-12T01:36:05.211Z,7.90
2022-10-12T01:38:43.832Z,8.10
2022-10-12T01:41:29.531Z,8.00
2022-10-12T01:43:56.255Z,8.00
2022-10-12T01:49:15.066Z,8.10
2022-10-12T01:51:55.691Z,8.00
2022-10-12T01:54:39.395Z,8.10
2022-10-12T01:57:12.863Z,8.10
2022-10-12T02:00:02.681Z,8.00
2022-10-12T02:02:39.704Z,8.00
2022-10-12T02:05:12.282Z,8.10
2022-10-12T02:08:08.213Z,8.00
2022-10-12T02:10:44.350Z,8.00
2022-10-12T02:13:15.232Z,8.10
2022-10-12T02:15:43.681Z,8.00
2022-10-12T02:18:15.305Z,8.00
2022-10-12T02:20:42.762Z,7.90
2022-10-12T02:23:11.284Z,8.00
2022-10-12T02:25:40.024Z,7.90
2022-10-12T02:28:13.829Z,7.90
2022-10-12T02:30:57.348Z,7.80
2022-10-12T02:33:53.402Z,7.80
2022-10-12T02:36:34.706Z,7.80
2022-10-12T02:39:14.737Z,7.80
2022-10-12T02:41:49.801Z,7.80
2022-10-12T02:47:10.307Z,7.90
2022-10-12T02:52:26.520Z,7.90
2022-10-12T02:57:20.488Z,7.90
2022-10-12T02:59:47.206Z,7.80
2022-10-12T03:05:00.574Z,7.90
2022-10-12T03:09:53.968Z,7.80
2022-10-12T03:12:20.682Z,7.90
2022-10-12T03:17:34.034Z,7.70
2022-10-12T03:20:00.767Z,7.70
2022-10-12T03:22:27.735Z,7.60
2022-10-12T03:24:54.458Z,7.60
2022-10-12T03:27:21.194Z,7.60
2022-10-12T03:29:47.913Z,7.50
2022-10-12T03:32:14.641Z,7.50
2022-10-12T03:34:41.396Z,7.50
2022-10-12T03:37:08.136Z,7.50
2022-10-12T03:39:34.899Z,7.50
2022-10-12T03:42:01.614Z,7.50
2022-10-12T03:44:28.367Z,7.50
2022-10-12T03:46:55.072Z,7.50
2022-10-12T03:49:21.864Z,7.50
2022-10-12T03:54:35.251Z,7.50
2022-10-12T03:59:48.614Z,7.60
2022-10-12T04:02:17.085Z,7.60
2022-10-12T04:04:44.275Z,7.60
2022-10-12T04:07:11.014Z,7.60
2022-10-12T04:09:37.762Z,7.60
2022-10-12T04:12:04.680Z,7.60
2022-10-12T04:14:31.406Z,7.60
2022-10-12T04:16:58.139Z,7.60
2022-10-12T04:19:24.889Z,7.60
2022-10-12T04:21:51.659Z,7.60
2022-10-12T04:24:18.377Z,7.60
2022-10-12T04:26:45.096Z,7.70
2022-10-12T04:29:13.003Z,7.70
2022-10-12T04:31:40.615Z,7.60
2022-10-12T04:36:54.064Z,7.70
2022-10-12T04:42:07.454Z,7.70
2022-10-12T04:44:34.545Z,8.20
2022-10-12T04:47:02.016Z,7.80
2022-10-12T04:49:28.910Z,7.80
2022-10-12T04:51:55.626Z,7.80
2022-10-12T04:54:22.371Z,7.80
2022-10-12T04:56:49.084Z,7.90
2022-10-12T04:59:16.108Z,7.80
2022-10-12T05:01:42.920Z,7.90
2022-10-12T05:04:09.713Z,8.10
2022-10-12T05:06:36.476Z,8.00
2022-10-12T05:09:03.716Z,8.10
2022-10-12T05:11:30.445Z,8.00
2022-10-12T05:13:57.176Z,8.10
2022-10-12T05:16:23.905Z,8.10
2022-10-12T05:18:50.638Z,8.10
2022-10-12T05:21:17.587Z,8.10
2022-10-12T05:23:44.339Z,8.10
2022-10-12T05:26:11.098Z,8.10
2022-10-12T05:28:41.051Z,8.10
2022-10-12T05:31:08.536Z,8.20
2022-10-12T05:33:35.296Z,8.10
2022-10-12T05:36:02.078Z,8.20
2022-10-12T05:38:28.921Z,8.20
2022-10-12T05:41:00.343Z,8.20
2022-10-12T05:43:28.210Z,8.30
2022-10-12T05:45:54.996Z,8.30
2022-10-12T05:48:21.767Z,8.20
2022-10-12T05:50:48.480Z,8.30
2022-10-12T05:53:15.181Z,8.30
2022-10-12T05:55:55.082Z,8.40
2022-10-12T05:58:22.760Z,8.40
2022-10-12T06:00:49.586Z,8.40
2022-10-12T06:03:18.741Z,8.40
2022-10-12T06:08:34.520Z,8.50
2022-10-12T06:13:48.270Z,8.50
2022-10-12T06:19:01.695Z,8.60
2022-10-12T06:21:33.361Z,8.70
2022-10-12T06:24:01.121Z,8.80
2022-10-12T06:26:27.993Z,8.80
2022-10-12T06:28:54.807Z,8.80
2022-10-12T06:31:22.094Z,8.80
2022-10-12T06:33:48.854Z,8.90
2022-10-12T06:36:15.572Z,8.90
2022-10-12T06:38:42.293Z,8.90
2022-10-12T06:43:55.711Z,8.90
2022-10-12T06:49:10.005Z,9.00
2022-10-12T06:54:23.418Z,9.10
2022-10-12T06:59:36.770Z,9.20
2022-10-12T07:02:03.572Z,9.20
2022-10-12T07:04:30.357Z,9.30
2022-10-12T07:06:57.103Z,9.30
2022-10-12T07:09:23.843Z,9.40
2022-10-12T07:11:50.688Z,9.40
2022-10-12T07:14:17.464Z,9.50
2022-10-12T07:16:44.282Z,9.50
2022-10-12T07:21:57.749Z,9.60
2022-10-12T07:27:11.559Z,9.70
2022-10-12T07:32:26.068Z,9.70
2022-10-12T07:37:39.716Z,9.80
2022-10-12T07:40:07.322Z,9.90
2022-10-12T07:42:34.132Z,9.90
2022-10-12T07:45:00.855Z,9.90
2022-10-12T07:47:27.582Z,9.90
2022-10-12T07:49:54.337Z,10.00
2022-10-12T07:52:21.217Z,10.00
2022-10-12T07:54:47.984Z,10.10
2022-10-12T07:57:14.732Z,10.10
2022-10-12T07:59:41.417Z,10.20
2022-10-12T08:02:10.756Z,10.20
2022-10-12T08:04:37.560Z,10.30
2022-10-12T08:07:04.314Z,10.50
2022-10-12T08:09:31.063Z,10.70
2022-10-12T08:11:57.812Z,10.70
2022-10-12T08:14:24.547Z,10.70
2022-10-12T08:16:51.298Z,10.80
2022-10-12T08:19:18.268Z,10.80
2022-10-12T08:21:45.131Z,10.80
2022-10-12T08:24:12.490Z,10.90
2022-10-12T08:26:39.671Z,10.90
2022-10-12T08:29:07.503Z,10.90
2022-10-12T08:31:34.542Z,10.90
2022-10-12T08:34:01.303Z,10.90
2022-10-12T08:39:16.823Z,10.90
2022-10-12T08:41:54.890Z,11.00
2022-10-12T08:44:27.332Z,11.10
2022-10-12T08:47:02.749Z,11.00
2022-10-12T08:49:31.810Z,11.00
2022-10-12T08:52:10.152Z,11.00
2022-10-12T08:54:43.359Z,11.10
2022-10-12T08:57:19.908Z,11.00
2022-10-12T08:59:47.001Z,11.10
2022-10-12T09:05:54.306Z,11.10
2022-10-12T09:08:29.949Z,11.10
2022-10-12T09:14:19.422Z,11.20
2022-10-12T09:16:48.560Z,11.30
2022-10-12T09:19:29.265Z,11.30
2022-10-12T09:24:45.424Z,11.40
2022-10-12T09:30:06.016Z,11.50
2022-10-12T09:32:57.815Z,11.70
2022-10-12T09:35:24.710Z,11.70
2022-10-12T09:37:53.993Z,11.80
2022-10-12T09:40:27.459Z,12.00
2022-10-12T09:42:55.861Z,12.00
2022-10-12T09:45:23.108Z,12.10
2022-10-12T09:51:07.436Z,12.20
2022-10-12T09:53:47.516Z,12.20
2022-10-12T09:59:44.325Z,12.70
2022-10-12T10:02:10.974Z,12.90
2022-10-12T10:04:42.488Z,13.30
2022-10-12T10:07:41.619Z,14.30
2022-10-12T10:10:29.883Z,15.30
2022-10-12T10:13:01.589Z,16.00
2022-10-12T10:15:31.515Z,16.80
2022-10-12T10:20:58.860Z,17.50
2022-10-12T10:23:44.659Z,18.20
2022-10-12T10:26:14.876Z,18.30
2022-10-12T10:28:46.830Z,18.60
2022-10-12T10:31:13.643Z,19.00
2022-10-12T10:33:41.737Z,19.10
2022-10-12T10:36:23.291Z,19.60
2022-10-12T10:39:01.169Z,20.00
2022-10-12T10:41:35.193Z,20.20
2022-10-12T10:44:02.841Z,19.50
2022-10-12T10:46:32.844Z,19.80
2022-10-12T10:49:02.167Z,19.80
2022-10-12T10:51:48.919Z,19.20
2022-10-12T10:54:24.486Z,19.20
2022-10-12T10:56:56.361Z,19.50
2022-10-12T10:59:44.123Z,20.20
2022-10-12T11:02:19.956Z,20.60
2022-10-12T11:04:52.379Z,20.90
2022-10-12T11:07:26.806Z,19.40
2022-10-12T11:10:00.080Z,20.50
2022-10-12T11:12:37.676Z,20.60
2022-10-12T11:15:17.075Z,19.80
2022-10-12T11:17:47.371Z,19.90
2022-10-12T11:20:51.803Z,20.60
2022-10-12T11:23:45.471Z,21.10
2022-10-12T11:26:22.683Z,20.60
2022-10-12T11:28:50.043Z,19.60
2022-10-12T11:31:24.542Z,20.10
2022-10-12T11:33:53.738Z,19.60
2022-10-12T11:36:24.600Z,18.60
2022-10-12T11:39:04.480Z,18.80
2022-10-12T11:42:03.172Z,19.60
2022-10-12T11:44:45.708Z,19.70
2022-10-12T11:47:15.155Z,19.30
2022-10-12T11:50:00.370Z,18.60
2022-10-12T11:52:37.278Z,18.80
2022-10-12T11:55:21.138Z,18.20
2022-10-12T11:57:49.947Z,18.30
2022-10-12T12:00:25.899Z,18.70
2022-10-12T12:06:29.812Z,19.50
2022-10-12T12:09:19.187Z,20.30
2022-10-12T12:11:45.974Z,20.40
2022-10-12T12:14:21.536Z,20.20
2022-10-12T12:16:49.530Z,20.30
2022-10-12T12:19:35.595Z,20.50
2022-10-12T12:22:18.788Z,21.50
2022-10-12T12:25:10.238Z,21.40
2022-10-12T12:27:57.167Z,20.10
2022-10-12T12:30:31.129Z,19.50
2022-10-12T12:33:21.084Z,20.20
2022-10-12T12:35:58.290Z,20.20
2022-10-12T12:38:28.831Z,19.40
2022-10-12T12:41:14.360Z,19.30
2022-10-12T12:44:02.074Z,19.20
2022-10-12T12:46:51.877Z,19.20
2022-10-12T12:49:39.608Z,18.70
2022-10-12T12:52:17.370Z,18.10
2022-10-12T12:58:40.707Z,18.50
2022-10-12T13:01:40.109Z,18.60
2022-10-12T13:04:22.003Z,18.40
2022-10-12T13:07:16.626Z,17.70
2022-10-12T13:09:56.189Z,16.90
2022-10-12T13:12:46.605Z,16.60
2022-10-12T13:15:32.803Z,16.10
2022-10-12T13:18:34.629Z,16.00
2022-10-12T13:21:08.105Z,15.80
2022-10-12T13:23:35.339Z,15.60
2022-10-12T13:26:10.640Z,15.90
2022-10-12T13:28:41.980Z,15.90
2022-10-12T13:31:18.172Z,15.90
2022-10-12T13:34:05.396Z,16.40
2022-10-12T13:36:36.156Z,16.50
2022-10-12T13:39:15.833Z,16.30
2022-10-12T13:41:43.396Z,16.20
2022-10-12T13:44:23.919Z,15.90
2022-10-12T13:46:58.644Z,15.70
2022-10-12T13:49:29.893Z,15.70
2022-10-12T13:52:00.640Z,16.00
2022-10-12T13:54:39.401Z,16.20
2022-10-12T14:00:07.902Z,16.50
2022-10-12T14:02:35.363Z,16.60
2022-10-12T14:05:03.936Z,16.50
2022-10-12T14:07:40.450Z,16.50
2022-10-12T14:10:16.093Z,16.60
2022-10-12T14:12:45.945Z,16.50
2022-10-12T14:15:14.617Z,16.60
2022-10-12T14:20:35.005Z,16.10
2022-10-12T14:25:53.611Z,15.90
2022-10-12T14:28:29.515Z,15.70
2022-10-12T14:30:56.487Z,15.50
2022-10-12T14:33:25.024Z,15.50
2022-10-12T14:36:10.974Z,15.20
2022-10-12T14:38:46.115Z,15.10
2022-10-12T14:41:33.486Z,15.10
2022-10-12T14:44:10.304Z,15.00
2022-10-12T14:46:42.893Z,15.00
2022-10-12T14:49:19.697Z,14.90
2022-10-12T14:51:47.353Z,14.90
2022-10-12T14:54:14.235Z,14.70
2022-10-12T14:56:40.974Z,14.70
2022-10-12T15:01:54.491Z,14.60
2022-10-12T15:10:25.040Z,14.40
2022-10-12T15:15:42.951Z,14.30
2022-10-12T15:20:56.411Z,14.10
2022-10-12T15:26:14.127Z,13.90
2022-10-12T15:31:28.040Z,13.80
2022-10-12T15:33:54.776Z,13.60
2022-10-12T15:36:21.509Z,13.50
2022-10-12T15:41:34.913Z,13.40
2022-10-12T15:46:51.160Z,13.20
2022-10-12T15:49:19.716Z,13.10
2022-10-12T15:51:49.016Z,13.00
2022-10-12T15:54:15.731Z,12.90
2022-10-12T15:56:42.590Z,12.80
2022-10-12T15:59:09.419Z,12.60
2022-10-12T16:01:37.137Z,12.50
2022-10-12T16:06:51.877Z,12.20
2022-10-12T16:09:18.585Z,12.10
2022-10-12T16:11:45.364Z,12.00
2022-10-12T16:14:14.721Z,11.80
2022-10-12T16:16:41.431Z,11.80
2022-10-12T16:19:13.319Z,11.60
2022-10-12T16:21:40.045Z,11.70
2022-10-12T16:24:06.829Z,11.50
2022-10-12T16:26:33.537Z,11.50
2022-10-12T16:29:00.321Z,11.40
2022-10-12T16:31:27.057Z,11.40
2022-10-12T16:33:53.759Z,11.20
2022-10-12T16:36:20.498Z,11.10
2022-10-12T16:38:47.208Z,11.00
2022-10-12T16:41:16.615Z,10.90
2022-10-12T16:43:43.663Z,10.90
2022-10-12T16:46:10.478Z,10.80
2022-10-12T16:48:37.308Z,10.70
2022-10-12T16:51:09.061Z,10.60
2022-10-12T16:53:35.898Z,10.50
2022-10-12T16:56:03.519Z,10.40
2022-10-12T16:58:30.575Z,10.40
2022-10-12T17:00:57.462Z,10.40
2022-10-12T17:03:24.203Z,10.30
2022-10-12T17:05:58.680Z,10.10
2022-10-12T17:11:14.982Z,10.00
2022-10-12T17:16:29.208Z,9.80
2022-10-12T17:18:59.586Z,9.70
2022-10-12T17:21:26.888Z,9.70
2022-10-12T17:23:57.104Z,9.60
2022-10-12T17:29:13.982Z,9.60
2022-10-12T17:34:31.403Z,9.50
2022-10-12T17:39:29.152Z,9.50
2022-10-12T17:41:56.434Z,9.50
2022-10-12T17:44:23.179Z,9.40
2022-10-12T17:46:50.027Z,9.50
2022-10-12T17:49:23.515Z,9.50
2022-10-12T17:51:51.429Z,9.50
2022-10-12T17:54:22.790Z,9.50
2022-10-12T17:56:49.740Z,9.40
2022-10-12T17:59:18.305Z,9.30
2022-10-12T18:01:45.271Z,9.40
2022-10-12T18:04:12.748Z,9.30
2022-10-12T18:09:07.129Z,9.30
2022-10-12T18:11:34.603Z,9.30
2022-10-12T18:16:48.454Z,9.20
2022-10-12T18:19:15.150Z,9.30
2022-10-12T18:21:41.905Z,9.30
2022-10-12T18:24:15.645Z,9.30
2022-10-12T18:29:31.319Z,9.20
2022-10-12T18:31:58.052Z,9.20
2022-10-12T18:34:25.197Z,9.20
2022-10-12T18:36:52.347Z,9.20
2022-10-12T18:39:19.982Z,9.20
2022-10-12T18:41:50.340Z,9.20
2022-10-12T18:44:17.094Z,9.20
2022-10-12T18:49:30.950Z,9.10
2022-10-12T18:51:57.683Z,9.20
2022-10-12T18:54:24.509Z,9.10
2022-10-12T18:56:51.252Z,9.10
2022-10-12T18:59:18.028Z,9.10
2022-10-12T19:01:45.327Z,9.10
2022-10-12T19:04:12.202Z,9.00
2022-10-12T19:06:41.632Z,9.00
2022-10-12T19:09:12.588Z,9.00
2022-10-12T19:11:39.696Z,9.00
2022-10-12T19:16:58.084Z,9.00
2022-10-12T19:22:11.450Z,8.90
2022-10-12T19:24:38.174Z,8.90
2022-10-12T19:27:04.872Z,8.90
2022-10-12T19:29:31.603Z,8.80
2022-10-12T19:31:58.353Z,8.80
2022-10-12T19:34:25.064Z,8.80
2022-10-12T19:36:51.885Z,8.70
2022-10-12T19:39:21.508Z,8.70
2022-10-12T19:41:49.772Z,8.70
2022-10-12T19:44:17.528Z,8.70
2022-10-12T19:46:44.279Z,8.70
2022-10-12T19:49:12.734Z,8.70
2022-10-12T19:51:39.624Z,8.70
2022-10-12T19:54:06.602Z,8.70
2022-10-12T19:56:33.709Z,8.60
2022-10-12T19:59:00.470Z,8.70
2022-10-12T20:01:30.059Z,8.70
2022-10-12T20:03:56.806Z,8.80
2022-10-12T20:06:26.859Z,8.70
2022-10-12T20:11:41.538Z,8.60
2022-10-12T20:14:08.334Z,8.70
2022-10-12T20:16:36.027Z,8.70
2022-10-12T20:19:04.097Z,8.70
2022-10-12T20:21:30.988Z,8.80
2022-10-12T20:23:57.755Z,8.80
2022-10-12T20:26:25.695Z,8.70
2022-10-12T20:28:53.650Z,8.70
2022-10-12T20:31:20.978Z,8.80
2022-10-12T20:33:51.128Z,8.70
2022-10-12T20:39:08.573Z,8.70
2022-10-12T20:44:21.966Z,8.70
2022-10-12T20:49:16.851Z,8.60
2022-10-12T20:51:43.584Z,8.60
2022-10-12T20:54:15.270Z,8.60
2022-10-12T20:56:43.212Z,8.50
2022-10-12T20:59:10.864Z,8.60
2022-10-12T21:01:37.906Z,8.50
2022-10-12T21:04:04.682Z,8.50
2022-10-12T21:06:31.416Z,8.50
2022-10-12T21:08:58.411Z,8.50
2022-10-12T21:11:25.475Z,8.50
2022-10-12T21:13:52.455Z,8.50
2022-10-12T21:16:19.521Z,8.40
2022-10-12T21:21:32.963Z,8.30
2022-10-12T21:26:47.678Z,8.30
2022-10-12T21:32:01.082Z,8.20
2022-10-12T21:34:27.814Z,8.10
2022-10-12T21:36:54.533Z,8.10
2022-10-12T21:39:21.336Z,8.20
2022-10-12T21:41:48.051Z,8.10
2022-10-12T21:44:14.825Z,8.00
2022-10-12T21:46:41.607Z,8.00
2022-10-12T21:49:10.017Z,8.10
2022-10-12T21:51:37.332Z,8.10
2022-10-12T21:54:05.947Z,8.00
2022-10-12T21:56:35.205Z,8.00
2022-10-12T21:59:03.362Z,8.00
2022-10-12T22:01:35.870Z,8.00
2022-10-12T22:04:11.384Z,8.00
2022-10-12T22:06:38.287Z,7.90
2022-10-12T22:09:11.208Z,7.90
2022-10-12T22:11:38.014Z,7.90
2022-10-12T22:14:08.189Z,7.90
2022-10-12T22:16:35.605Z,7.80
2022-10-12T22:19:04.372Z,7.80
2022-10-12T22:21:32.217Z,7.80
2022-10-12T22:23:59.087Z,7.80
2022-10-12T22:26:26.097Z,7.80
2022-10-12T22:28:53.554Z,7.80
2022-10-12T22:31:21.756Z,7.80
2022-10-12T22:33:48.587Z,7.80
2022-10-12T22:36:15.822Z,7.80
2022-10-12T22:38:43.461Z,7.80
2022-10-12T22:41:15.310Z,7.80
2022-10-12T22:43:42.515Z,7.70
2022-10-12T22:48:55.970Z,7.80
2022-10-12T22:51:32.241Z,7.70
2022-10-12T22:53:59.744Z,7.70
2022-10-12T22:56:27.180Z,7.70
2022-10-12T22:58:59.214Z,7.70
2022-10-12T23:01:26.412Z,7.60
2022-10-12T23:03:54.562Z,7.70
2022-10-12T23:06:21.485Z,7.60
2022-10-12T23:08:48.246Z,7.60
2022-10-12T23:11:18.544Z,7.60
2022-10-12T23:13:45.859Z,7.60
2022-10-12T23:16:21.887Z,7.60
2022-10-12T23:18:55.501Z,7.50
2022-10-12T23:21:26.694Z,7.50
2022-10-12T23:23:53.477Z,7.60
2022-10-12T23:26:22.692Z,7.60
2022-10-12T23:28:50.565Z,7.50
2022-10-12T23:31:20.164Z,7.50
2022-10-12T23:33:47.575Z,7.50
2022-10-12T23:36:17.725Z,7.50
2022-10-12T23:38:45.291Z,7.50
2022-10-12T23:41:13.234Z,7.50
2022-10-12T23:43:40.814Z,7.60
2022-10-12T23:46:08.430Z,7.50
2022-10-12T23:48:35.366Z,7.50
2022-10-12T23:51:02.127Z,7.50
2022-10-12T23:53:29.431Z,7.50
2022-10-12T23:55:56.485Z,7.50
2022-10-12T23:58:23.321Z,7.50
